SA27 CYXU-ZZZZ
Flight info
| Callsign | SA27 |
|---|---|
| Flight time | N/A |
| Altitude | 5500 |
| Route | CYXU/15 VFR EASTBOUNND |
| Aircraft | L39/L-V/N |
Departure
| Time | 2026-05-05 23:44 |
|---|---|
| Airport | London International Airport (CYXU) |
Arrival
| Time | N/A |
|---|---|
| Airport | ZZZZ |
| Time | Latitude | Longitude | Altitude | Speed | Heading |
|---|---|---|---|---|---|
| 2026-05-05 23:43 | 43.04086 | -81.15837 | 906 ft | 30 kts | 138° |
| 2026-05-05 23:43 | 43.03894 | -81.15602 | 904 ft | 78 kts | 137° |
| 2026-05-05 23:43 | 43.03153 | -81.14719 | 957 ft | 128 kts | 139° |
| 2026-05-05 23:43 | 43.02372 | -81.13868 | 1238 ft | 157 kts | 142° |
| 2026-05-05 23:44 | 43.01746 | -81.13187 | 1704 ft | 182 kts | 141° |
| 2026-05-05 23:44 | 43.00880 | -81.11762 | 2648 ft | 212 kts | 112° |
| 2026-05-05 23:44 | 43.00685 | -81.09699 | 3759 ft | 226 kts | 86° |
| 2026-05-05 23:44 | 43.00665 | -81.07496 | 5046 ft | 240 kts | 97° |
| 2026-05-05 23:45 | 43.00390 | -81.05015 | 5499 ft | 295 kts | 100° |
| 2026-05-05 23:45 | 43.00079 | -81.01987 | 5515 ft | 345 kts | 99° |
| 2026-05-05 23:45 | 42.99747 | -80.98728 | 5320 ft | 306 kts | 99° |
| 2026-05-05 23:45 | 42.99474 | -80.96124 | 3798 ft | 254 kts | 98° |
| 2026-05-05 23:46 | 42.99197 | -80.94035 | 3486 ft | 192 kts | 101° |
| 2026-05-05 23:46 | 42.99130 | -80.92480 | 3455 ft | 141 kts | 69° |
| 2026-05-05 23:46 | 42.99777 | -80.91673 | 3271 ft | 135 kts | 360° |
| 2026-05-05 23:46 | 43.00634 | -80.91992 | 3409 ft | 128 kts | 326° |
| 2026-05-05 23:47 | 43.01474 | -80.92440 | 3498 ft | 138 kts | 355° |
| 2026-05-05 23:47 | 43.02360 | -80.91814 | 3515 ft | 158 kts | 45° |
| 2026-05-05 23:47 | 43.02965 | -80.90503 | 3514 ft | 167 kts | 53° |
| 2026-05-05 23:47 | 43.03843 | -80.89531 | 3516 ft | 160 kts | 8° |
| 2026-05-05 23:48 | 43.05013 | -80.89630 | 3523 ft | 183 kts | 343° |
| 2026-05-05 23:48 | 43.06370 | -80.89819 | 3521 ft | 212 kts | 3° |
| 2026-05-05 23:48 | 43.07883 | -80.89297 | 3520 ft | 234 kts | 12° |
| 2026-05-05 23:48 | 43.09510 | -80.88740 | 3512 ft | 248 kts | 9° |
| 2026-05-05 23:49 | 43.11231 | -80.88204 | 3512 ft | 258 kts | 10° |
| 2026-05-05 23:49 | 43.13012 | -80.87656 | 3509 ft | 266 kts | 10° |
| 2026-05-05 23:49 | 43.14809 | -80.87107 | 3520 ft | 270 kts | 9° |
| 2026-05-05 23:49 | 43.16662 | -80.86544 | 3513 ft | 274 kts | 10° |
| 2026-05-05 23:50 | 43.18535 | -80.85977 | 3508 ft | 276 kts | 10° |
| 2026-05-05 23:50 | 43.20416 | -80.85407 | 3511 ft | 278 kts | 10° |
| 2026-05-05 23:50 | 43.22307 | -80.84836 | 3511 ft | 279 kts | 10° |
| 2026-05-05 23:50 | 43.24203 | -80.84266 | 3511 ft | 279 kts | 10° |
| 2026-05-05 23:51 | 43.26103 | -80.83698 | 3508 ft | 279 kts | 10° |
| 2026-05-05 23:51 | 43.27940 | -80.82834 | 3499 ft | 283 kts | 27° |
| 2026-05-05 23:51 | 43.29512 | -80.81186 | 3498 ft | 285 kts | 38° |
| 2026-05-05 23:51 | 43.30980 | -80.79459 | 3497 ft | 269 kts | 36° |
| 2026-05-05 23:52 | 43.32477 | -80.78045 | 3491 ft | 254 kts | 31° |
| 2026-05-05 23:52 | 43.33938 | -80.76762 | 3489 ft | 244 kts | 30° |
| 2026-05-05 23:52 | 43.35350 | -80.75526 | 3489 ft | 237 kts | 30° |
| 2026-05-05 23:52 | 43.36727 | -80.74319 | 3485 ft | 232 kts | 30° |
| 2026-05-05 23:53 | 43.38079 | -80.73131 | 3488 ft | 229 kts | 30° |
| 2026-05-05 23:53 | 43.39410 | -80.71960 | 3488 ft | 226 kts | 30° |
| 2026-05-05 23:53 | 43.40716 | -80.70770 | 3487 ft | 225 kts | 34° |
| 2026-05-05 23:53 | 43.41898 | -80.69365 | 3486 ft | 224 kts | 40° |
| 2026-05-05 23:54 | 43.43046 | -80.67920 | 3484 ft | 223 kts | 40° |
| 2026-05-05 23:54 | 43.44179 | -80.66461 | 3486 ft | 223 kts | 44° |
| 2026-05-05 23:54 | 43.44936 | -80.64622 | 3486 ft | 225 kts | 78° |
| 2026-05-05 23:54 | 43.44714 | -80.62537 | 3485 ft | 224 kts | 118° |
| 2026-05-05 23:55 | 43.43617 | -80.61082 | 3485 ft | 220 kts | 154° |
| 2026-05-05 23:55 | 43.42214 | -80.60254 | 3490 ft | 220 kts | 156° |
| 2026-05-05 23:55 | 43.40847 | -80.59305 | 3491 ft | 220 kts | 159° |
| 2026-05-05 23:55 | 43.39367 | -80.59025 | 3490 ft | 215 kts | 189° |
| 2026-05-05 23:56 | 43.37904 | -80.59421 | 3494 ft | 215 kts | 193° |
| 2026-05-05 23:56 | 43.36418 | -80.59716 | 3498 ft | 216 kts | 190° |
| 2026-05-05 23:56 | 43.34932 | -80.60021 | 3498 ft | 216 kts | 193° |
| 2026-05-05 23:56 | 43.33442 | -80.60317 | 3499 ft | 216 kts | 193° |
| 2026-05-05 23:57 | 43.32115 | -80.61146 | 3493 ft | 210 kts | 227° |
| 2026-05-05 23:57 | 43.31525 | -80.62896 | 3491 ft | 204 kts | 268° |
| 2026-05-05 23:57 | 43.31937 | -80.64703 | 3492 ft | 203 kts | 308° |
| 2026-05-05 23:57 | 43.33133 | -80.65675 | 3492 ft | 206 kts | 348° |
| 2026-05-05 23:58 | 43.34567 | -80.65482 | 3502 ft | 210 kts | 11° |
| 2026-05-05 23:58 | 43.35969 | -80.65022 | 3502 ft | 211 kts | 10° |
| 2026-05-05 23:58 | 43.37419 | -80.64554 | 3502 ft | 212 kts | 11° |
| 2026-05-05 23:58 | 43.38835 | -80.64085 | 3500 ft | 212 kts | 11° |
| 2026-05-05 23:59 | 43.40261 | -80.63612 | 3633 ft | 206 kts | 10° |
| 2026-05-05 23:59 | 43.41595 | -80.63036 | 3879 ft | 199 kts | 26° |
| 2026-05-05 23:59 | 43.42462 | -80.61580 | 4118 ft | 197 kts | 66° |
| 2026-05-05 23:59 | 43.42827 | -80.59826 | 4366 ft | 189 kts | 68° |
| 2026-05-06 00:00 | 43.43478 | -80.58343 | 4612 ft | 177 kts | 44° |
| 2026-05-06 00:00 | 43.44251 | -80.57066 | 4847 ft | 172 kts | 51° |
| 2026-05-06 00:00 | 43.44892 | -80.55716 | 5084 ft | 165 kts | 51° |
| 2026-05-06 00:00 | 43.45604 | -80.54267 | 5358 ft | 202 kts | 51° |
| 2026-05-06 00:01 | 43.46437 | -80.52585 | 5501 ft | 218 kts | 51° |
| 2026-05-06 00:01 | 43.47290 | -80.50832 | 5498 ft | 224 kts | 55° |
| 2026-05-06 00:01 | 43.48002 | -80.48905 | 5504 ft | 228 kts | 61° |
| 2026-05-06 00:01 | 43.48690 | -80.46924 | 5509 ft | 230 kts | 61° |
| 2026-05-06 00:02 | 43.49377 | -80.44916 | 5509 ft | 233 kts | 62° |
| 2026-05-06 00:02 | 43.50065 | -80.42886 | 5508 ft | 236 kts | 65° |
| 2026-05-06 00:02 | 43.50567 | -80.40724 | 5509 ft | 238 kts | 71° |
| 2026-05-06 00:02 | 43.51033 | -80.38528 | 5509 ft | 239 kts | 71° |
| 2026-05-06 00:03 | 43.51495 | -80.36316 | 5507 ft | 241 kts | 71° |
| 2026-05-06 00:03 | 43.51959 | -80.34096 | 5509 ft | 240 kts | 71° |
| 2026-05-06 00:03 | 43.52415 | -80.31896 | 5504 ft | 238 kts | 71° |
| 2026-05-06 00:03 | 43.52867 | -80.29708 | 5499 ft | 236 kts | 71° |
| 2026-05-06 00:04 | 43.53315 | -80.27535 | 5496 ft | 236 kts | 72° |
| 2026-05-06 00:04 | 43.53763 | -80.25363 | 5159 ft | 235 kts | 71° |
| 2026-05-06 00:04 | 43.54268 | -80.23261 | 4497 ft | 211 kts | 58° |
| 2026-05-06 00:04 | 43.55238 | -80.22044 | 4491 ft | 176 kts | 14° |
| 2026-05-06 00:05 | 43.57303 | -80.21431 | 4485 ft | 136 kts | 17° |
| 2026-05-06 00:05 | 43.58161 | -80.21062 | 4330 ft | 123 kts | 352° |
| 2026-05-06 00:05 | 43.58771 | -80.21650 | 4182 ft | 106 kts | 286° |
| 2026-05-06 00:06 | 43.58707 | -80.22617 | 4024 ft | 104 kts | 255° |
| 2026-05-06 00:06 | 43.58577 | -80.23722 | 3975 ft | 148 kts | 283° |
| 2026-05-06 00:06 | 43.59403 | -80.24783 | 4117 ft | 189 kts | 332° |
| 2026-05-06 00:06 | 43.60759 | -80.25172 | 3979 ft | 207 kts | 11° |
| 2026-05-06 00:07 | 43.61611 | -80.23735 | 3665 ft | 198 kts | 83° |
| 2026-05-06 00:07 | 43.61081 | -80.22043 | 3015 ft | 203 kts | 142° |
| 2026-05-06 00:07 | 43.59886 | -80.21127 | 2658 ft | 192 kts | 165° |
| 2026-05-06 00:07 | 43.58700 | -80.20367 | 2577 ft | 186 kts | 138° |
| 2026-05-06 00:08 | 43.57781 | -80.19066 | 2540 ft | 191 kts | 137° |
| 2026-05-06 00:08 | 43.56897 | -80.17741 | 2689 ft | 183 kts | 131° |
| 2026-05-06 00:08 | 43.55843 | -80.16985 | 2549 ft | 170 kts | 197° |
| 2026-05-06 00:08 | 43.55416 | -80.18193 | 2291 ft | 167 kts | 301° |
| 2026-05-06 00:09 | 43.56328 | -80.19334 | 2433 ft | 191 kts | 318° |
| 2026-05-06 00:09 | 43.56707 | -80.20842 | 2466 ft | 156 kts | 251° |
| 2026-05-06 00:09 | 43.55903 | -80.21450 | 2129 ft | 151 kts | 172° |
| 2026-05-06 00:09 | 43.54969 | -80.20640 | 1793 ft | 165 kts | 135° |
| 2026-05-06 00:10 | 43.54536 | -80.19288 | 1828 ft | 156 kts | 83° |
| 2026-05-06 00:10 | 43.55065 | -80.18067 | 1700 ft | 150 kts | 24° |
| 2026-05-06 00:10 | 43.55837 | -80.18505 | 1523 ft | 139 kts | 297° |
| 2026-05-06 00:10 | 43.56563 | -80.19761 | 2078 ft | 181 kts | 319° |
| 2026-05-06 00:11 | 43.57449 | -80.21110 | 2732 ft | 210 kts | 292° |
| 2026-05-06 00:11 | 43.57253 | -80.23067 | 3179 ft | 228 kts | 234° |
| 2026-05-06 00:11 | 43.55913 | -80.24449 | 3304 ft | 238 kts | 211° |
| 2026-05-06 00:11 | 43.54558 | -80.25454 | 3234 ft | 206 kts | 208° |
| 2026-05-06 00:12 | 43.53335 | -80.26244 | 3256 ft | 185 kts | 206° |
| 2026-05-06 00:12 | 43.52170 | -80.26930 | 3072 ft | 180 kts | 206° |
| 2026-05-06 00:12 | 43.51009 | -80.27638 | 2984 ft | 191 kts | 208° |
| 2026-05-06 00:12 | 43.49848 | -80.28564 | 3043 ft | 198 kts | 217° |
| 2026-05-06 00:13 | 43.48844 | -80.29839 | 2858 ft | 197 kts | 239° |
| 2026-05-06 00:13 | 43.48254 | -80.31590 | 2444 ft | 206 kts | 246° |
| 2026-05-06 00:13 | 43.47642 | -80.33404 | 2311 ft | 210 kts | 246° |
| 2026-05-06 00:13 | 43.47051 | -80.35251 | 2303 ft | 210 kts | 248° |
| 2026-05-06 00:14 | 43.46462 | -80.37053 | 2410 ft | 200 kts | 232° |
| 2026-05-06 00:14 | 43.45329 | -80.37555 | 2575 ft | 166 kts | 163° |
| 2026-05-06 00:14 | 43.44577 | -80.36485 | 2539 ft | 160 kts | 108° |
| 2026-05-06 00:14 | 43.44656 | -80.34959 | 2368 ft | 167 kts | 73° |
| 2026-05-06 00:15 | 43.45175 | -80.33615 | 2299 ft | 156 kts | 35° |
| 2026-05-06 00:15 | 43.46126 | -80.33309 | 2062 ft | 133 kts | 346° |
| 2026-05-06 00:15 | 43.46892 | -80.33941 | 1811 ft | 133 kts | 312° |
| 2026-05-06 00:15 | 43.47115 | -80.35056 | 1472 ft | 124 kts | 250° |
| 2026-05-06 00:16 | 43.46754 | -80.36150 | 1207 ft | 121 kts | 245° |